createdAt,value
2022-09-24T00:02:40.199Z,22.87
2022-09-24T00:07:44.143Z,22.91
2022-09-24T00:12:47.791Z,22.90
2022-09-24T00:17:50.371Z,22.88
2022-09-24T00:22:54.331Z,22.85
2022-09-24T00:27:57.059Z,22.80
2022-09-24T00:32:59.638Z,22.77
2022-09-24T00:38:05.833Z,22.74
2022-09-24T00:43:29.919Z,22.69
2022-09-24T00:48:34.133Z,22.65
2022-09-24T00:53:38.430Z,22.63
2022-09-24T00:58:41.233Z,22.60
2022-09-24T01:03:43.824Z,22.58
2022-09-24T01:08:48.373Z,22.55
2022-09-24T01:14:04.874Z,22.51
2022-09-24T01:19:24.486Z,22.49
2022-09-24T01:24:47.114Z,22.45
2022-09-24T01:30:03.165Z,22.42
2022-09-24T01:35:13.359Z,22.37
2022-09-24T01:40:16.991Z,22.35
2022-09-24T01:45:21.908Z,22.32
2022-09-24T01:50:26.049Z,22.30
2022-09-24T01:55:34.057Z,22.27
2022-09-24T02:00:42.448Z,22.24
2022-09-24T02:05:51.022Z,22.22
2022-09-24T02:10:58.784Z,22.19
2022-09-24T02:16:06.770Z,22.16
2022-09-24T02:21:12.365Z,22.13
2022-09-24T02:26:15.313Z,22.12
2022-09-24T02:31:25.310Z,22.10
2022-09-24T02:36:29.646Z,22.07
2022-09-24T02:41:33.088Z,22.07
2022-09-24T02:46:37.024Z,22.06
2022-09-24T02:51:39.716Z,22.03
2022-09-24T02:56:42.411Z,22.02
2022-09-24T03:01:46.727Z,22.01
2022-09-24T03:06:49.503Z,21.99
2022-09-24T03:11:52.354Z,21.99
2022-09-24T03:16:56.267Z,21.97
2022-09-24T03:21:58.908Z,21.96
2022-09-24T03:27:01.648Z,21.94
2022-09-24T03:32:05.990Z,21.93
2022-09-24T03:37:08.822Z,21.91
2022-09-24T03:42:11.407Z,21.90
2022-09-24T03:47:15.323Z,21.89
2022-09-24T03:52:18.105Z,21.88
2022-09-24T03:57:20.995Z,21.87
2022-09-24T04:02:24.966Z,21.85
2022-09-24T04:07:27.549Z,21.84
2022-09-24T04:12:31.123Z,21.82
2022-09-24T04:17:35.284Z,21.82
2022-09-24T04:22:39.232Z,21.82
2022-09-24T04:27:41.779Z,21.81
2022-09-24T04:32:45.973Z,21.80
2022-09-24T04:37:49.074Z,21.79
2022-09-24T04:42:52.500Z,21.79
2022-09-24T04:47:57.339Z,21.77
2022-09-24T04:53:00.589Z,21.77
2022-09-24T04:58:03.195Z,21.75
2022-09-24T05:03:07.246Z,21.74
2022-09-24T05:08:10.020Z,21.72
2022-09-24T05:13:12.695Z,21.72
2022-09-24T05:18:16.671Z,21.71
2022-09-24T05:23:19.285Z,21.69
2022-09-24T05:28:22.251Z,21.68
2022-09-24T05:33:26.212Z,21.66
2022-09-24T05:38:29.869Z,21.65
2022-09-24T05:43:32.511Z,21.66
2022-09-24T05:48:36.596Z,21.65
2022-09-24T05:53:39.205Z,21.65
2022-09-24T05:58:41.796Z,21.64
2022-09-24T06:03:45.900Z,21.63
2022-09-24T06:08:48.492Z,21.64
2022-09-24T06:13:51.372Z,21.63
2022-09-24T06:18:55.294Z,21.63
2022-09-24T06:23:57.969Z,21.63
2022-09-24T06:29:04.669Z,21.62
2022-09-24T06:34:09.744Z,21.63
2022-09-24T06:39:12.420Z,21.63
2022-09-24T06:44:15.075Z,21.64
2022-09-24T06:49:19.225Z,21.64
2022-09-24T06:54:22.341Z,21.65
2022-09-24T06:59:24.985Z,21.67
2022-09-24T07:04:28.870Z,21.70
2022-09-24T07:09:31.687Z,21.71
2022-09-24T07:14:34.255Z,21.72
2022-09-24T07:19:38.436Z,21.73
2022-09-24T07:24:41.478Z,21.73
2022-09-24T07:29:44.208Z,21.82
2022-09-24T07:34:48.411Z,21.82
2022-09-24T07:39:51.045Z,21.79
2022-09-24T07:44:53.700Z,21.77
2022-09-24T07:49:57.630Z,21.45
2022-09-24T07:55:00.360Z,20.92
2022-09-24T08:00:03.333Z,20.71
2022-09-24T08:05:16.575Z,20.96
2022-09-24T08:10:19.440Z,21.11
2022-09-24T08:15:22.734Z,21.20
2022-09-24T08:20:26.900Z,21.33
2022-09-24T08:25:29.557Z,21.38
2022-09-24T08:30:33.284Z,21.40
2022-09-24T08:35:39.923Z,21.44
2022-09-24T08:40:46.932Z,21.46
2022-09-24T08:46:14.282Z,21.52
2022-09-24T08:51:21.061Z,21.58
2022-09-24T08:56:27.769Z,21.59
2022-09-24T09:01:40.618Z,21.66
2022-09-24T09:06:57.247Z,21.76
2022-09-24T09:12:03.670Z,21.81
2022-09-24T09:17:18.282Z,21.86
2022-09-24T09:22:26.279Z,21.90
2022-09-24T09:27:29.722Z,21.93
2022-09-24T09:32:47.346Z,21.97
2022-09-24T09:37:59.626Z,21.99
2022-09-24T09:43:03.887Z,22.02
2022-09-24T09:48:12.643Z,22.06
2022-09-24T09:53:25.212Z,22.08
2022-09-24T09:58:29.891Z,22.06
2022-09-24T10:03:34.904Z,22.05
2022-09-24T10:08:40.163Z,22.06
2022-09-24T10:13:42.818Z,22.11
2022-09-24T10:18:48.680Z,22.12
2022-09-24T10:23:52.853Z,22.20
2022-09-24T10:29:09.590Z,22.25
2022-09-24T10:34:22.423Z,22.27
2022-09-24T10:39:26.585Z,22.28
2022-09-24T10:44:36.236Z,22.30
2022-09-24T10:49:55.285Z,22.32
2022-09-24T10:55:11.880Z,22.41
2022-09-24T11:00:20.005Z,22.38
2022-09-24T11:05:23.620Z,22.38
2022-09-24T11:10:44.421Z,22.42
2022-09-24T11:16:10.494Z,22.45
2022-09-24T11:21:27.595Z,22.50
2022-09-24T11:26:42.534Z,22.47
2022-09-24T11:31:55.403Z,22.48
2022-09-24T11:37:12.947Z,22.51
2022-09-24T11:42:25.211Z,22.54
2022-09-24T11:47:41.724Z,22.57
2022-09-24T11:52:49.010Z,22.56
2022-09-24T11:57:58.522Z,22.59
2022-09-24T12:03:07.323Z,22.64
2022-09-24T12:08:13.777Z,22.69
2022-09-24T12:13:24.049Z,22.85
2022-09-24T12:18:30.951Z,22.98
2022-09-24T12:23:39.103Z,23.13
2022-09-24T12:29:10.734Z,23.22
2022-09-24T12:34:24.647Z,23.29
2022-09-24T12:39:32.344Z,23.37
2022-09-24T12:44:45.337Z,23.40
2022-09-24T12:49:55.718Z,23.47
2022-09-24T12:55:02.133Z,23.53
2022-09-24T13:00:38.335Z,23.55
2022-09-24T13:05:49.487Z,23.62
2022-09-24T13:10:56.315Z,23.72
2022-09-24T13:16:04.529Z,23.82
2022-09-24T13:21:10.099Z,23.97
2022-09-24T13:26:26.764Z,24.01
2022-09-24T13:31:48.813Z,24.08
2022-09-24T13:36:58.487Z,24.10
2022-09-24T13:42:08.334Z,24.22
2022-09-24T13:47:20.853Z,24.37
2022-09-24T13:52:32.151Z,24.48
2022-09-24T13:57:44.212Z,24.57
2022-09-24T14:02:58.254Z,24.50
2022-09-24T14:08:05.823Z,24.48
2022-09-24T14:13:19.110Z,24.49
2022-09-24T14:18:23.424Z,24.52
2022-09-24T14:23:31.191Z,24.52
2022-09-24T14:28:35.151Z,24.54
2022-09-24T14:33:40.934Z,24.57
2022-09-24T14:38:53.906Z,24.58
2022-09-24T14:44:02.200Z,24.67
2022-09-24T14:49:07.658Z,24.60
2022-09-24T14:54:22.719Z,24.62
2022-09-24T14:59:31.040Z,24.69
2022-09-24T15:04:35.450Z,24.74
2022-09-24T15:09:38.254Z,24.70
2022-09-24T15:14:40.910Z,24.72
2022-09-24T15:19:45.897Z,24.72
2022-09-24T15:24:48.560Z,24.72
2022-09-24T15:29:51.324Z,24.84
2022-09-24T15:34:56.606Z,24.86
2022-09-24T15:40:05.915Z,24.93
2022-09-24T15:45:16.112Z,24.96
2022-09-24T15:50:21.437Z,24.99
2022-09-24T15:55:24.507Z,25.02
2022-09-24T16:00:27.209Z,25.01
2022-09-24T16:05:31.152Z,25.01
2022-09-24T16:10:33.751Z,25.03
2022-09-24T16:15:36.797Z,25.17
2022-09-24T16:20:41.995Z,25.18
2022-09-24T16:25:55.591Z,25.17
2022-09-24T16:30:58.917Z,25.21
2022-09-24T16:36:07.127Z,24.71
2022-09-24T16:41:10.547Z,24.31
2022-09-24T16:46:17.893Z,24.26
2022-09-24T16:51:24.012Z,24.05
2022-09-24T16:56:27.126Z,24.37
2022-09-24T17:01:29.939Z,24.52
2022-09-24T17:06:34.250Z,24.60
2022-09-24T17:11:39.275Z,24.66
2022-09-24T17:16:43.193Z,24.71
2022-09-24T17:21:50.058Z,24.77
2022-09-24T17:26:54.046Z,24.79
2022-09-24T17:31:56.747Z,24.78
2022-09-24T17:37:00.682Z,24.82
2022-09-24T17:42:03.340Z,24.82
2022-09-24T17:47:06.759Z,24.82
2022-09-24T17:52:13.522Z,24.84
2022-09-24T17:57:16.248Z,24.79
2022-09-24T18:02:19.031Z,24.73
2022-09-24T18:07:24.768Z,24.73
2022-09-24T18:12:27.410Z,24.79
2022-09-24T18:17:30.060Z,24.76
2022-09-24T18:22:34.060Z,24.75
2022-09-24T18:27:37.932Z,24.78
2022-09-24T18:32:40.630Z,24.80
2022-09-24T18:37:44.689Z,24.80
2022-09-24T18:42:47.409Z,24.82
2022-09-24T18:47:50.091Z,24.80
2022-09-24T18:52:54.105Z,24.82
2022-09-24T18:57:57.442Z,24.85
2022-09-24T19:03:00.443Z,24.85
2022-09-24T19:08:04.768Z,24.85
2022-09-24T19:13:07.661Z,24.84
2022-09-24T19:18:12.883Z,24.80
2022-09-24T19:23:17.446Z,24.80
2022-09-24T19:28:20.049Z,24.79
2022-09-24T19:33:23.258Z,24.76
2022-09-24T19:38:29.835Z,24.76
2022-09-24T19:43:33.265Z,24.75
2022-09-24T19:48:38.382Z,24.80
2022-09-24T19:53:43.008Z,24.79
2022-09-24T19:58:46.530Z,24.80
2022-09-24T20:03:49.643Z,24.78
2022-09-24T20:08:53.814Z,24.72
2022-09-24T20:13:57.061Z,24.74
2022-09-24T20:18:59.763Z,24.74
2022-09-24T20:24:06.146Z,24.73
2022-09-24T20:29:10.112Z,24.76
2022-09-24T20:34:12.758Z,24.74
2022-09-24T20:39:16.895Z,24.71
2022-09-24T20:44:21.432Z,24.70
2022-09-24T20:49:24.778Z,24.74
2022-09-24T20:54:29.343Z,24.76
2022-09-24T20:59:31.962Z,24.75
2022-09-24T21:04:35.213Z,24.75
2022-09-24T21:09:39.310Z,24.75
2022-09-24T21:14:42.069Z,24.73
2022-09-24T21:19:44.653Z,24.71
2022-09-24T21:24:49.299Z,24.64
2022-09-24T21:29:51.876Z,24.62
2022-09-24T21:34:54.494Z,24.57
2022-09-24T21:39:58.435Z,24.52
2022-09-24T21:45:01.059Z,24.49
2022-09-24T21:50:03.711Z,24.45
2022-09-24T21:55:11.017Z,24.41
2022-09-24T22:00:14.963Z,24.33
2022-09-24T22:05:19.701Z,24.31
2022-09-24T22:10:23.825Z,24.24
2022-09-24T22:15:26.465Z,24.22
2022-09-24T22:20:29.308Z,24.20
2022-09-24T22:25:33.395Z,24.19
2022-09-24T22:30:35.964Z,24.18
2022-09-24T22:35:48.998Z,24.18
2022-09-24T22:40:53.134Z,24.16
2022-09-24T22:45:58.111Z,24.13
2022-09-24T22:51:00.881Z,24.13
2022-09-24T22:56:07.261Z,24.11
2022-09-24T23:01:12.343Z,24.11
2022-09-24T23:06:14.985Z,24.10
2022-09-24T23:11:20.941Z,24.07
2022-09-24T23:16:25.495Z,24.03
2022-09-24T23:21:31.159Z,24.06
2022-09-24T23:26:35.189Z,24.04
2022-09-24T23:31:38.500Z,24.04
2022-09-24T23:36:41.156Z,24.01
2022-09-24T23:41:45.292Z,24.04
2022-09-24T23:46:47.841Z,24.02
2022-09-24T23:51:50.410Z,24.02
2022-09-24T23:56:54.371Z,23.97
